• Join FlightAware (Why Join?)
  • Login
  • US Flag 
01:48AM EDT


 

Airport Tracker/Info


-or-


 

Live Flight TrackerFlight Track Log ✈ EJA573 ✈ 03-May-2013 ✈ KFTW - KSAT

Flight Track Log - Related Links

Times and Time Zones

All times are in EDT time to prevent confusion due to time zone crossing. See the EJA573 flight status page for this flight to view local times or setup timezone preferences in your user account.

Time Position Orientation Groundspeed Altitude Reporting Facility
EDT Latitude Longitude Course Direction KTS MPH feet Rate Location/Type
04:50PM 32.8333 -97.3667 360° North 134 154 1,300  Level Dallas / Fort Worth TRACON
04:50PM 32.8500 -97.3667 360° North 187 215 3,500 3,600 Climbing Dallas / Fort Worth TRACON
04:51PM 32.9167 -97.3500 12° North 254 292 7,100 2,340 Climbing Dallas / Fort Worth TRACON
04:52PM 32.9000 -97.2833 107° East 289 333 8,000 1,440 Climbing Dallas / Fort Worth TRACON
04:54PM 32.7686 -97.3172 192° South 269 310 11,000 1,680 Climbing Fort Worth Center
04:55PM 32.6600 -97.2950 170° South 334 384 12,800 1,440 Climbing Fort Worth Center
04:56PM 32.5889 -97.2136 136° Southeast 351 404 13,900 1,560 Climbing Fort Worth Center
04:57PM 32.4969 -97.1106 137° Southeast 398 458 16,000 1,920 Climbing Fort Worth Center
04:58PM 32.3986 -97.0764 164° South 402 463 17,800 1,680 Climbing Fort Worth Center
04:59PM 32.2756 -97.0842 183° South 402 463 19,400 1,500 Climbing Fort Worth Center
05:00PM 32.1711 -97.0967 186° South 419 482 20,800 1,260 Climbing Fort Worth Center
05:01PM 32.0417 -97.1069 184° South 424 488 22,000 600 Climbing Fort Worth Center
05:02PM 31.9228 -97.1269 188° South 430 495 22,000  Level Fort Worth Center
05:03PM 31.8017 -97.1397 185° South 435 501 22,000  Level Fort Worth Center
05:05PM 31.5897 -97.1644 186° South 425 489 22,000  Level Houston Center
05:06PM 31.4694 -97.1789 186° South 428 493 22,000  Level Houston Center
05:07PM 31.3497 -97.1922 185° South 427 491 22,000  Level Houston Center
05:08PM 31.2314 -97.2061 186° South 423 487 22,000  Level Houston Center
05:09PM 31.1006 -97.2508 196° South 414 476 22,000  Level Houston Center
05:10PM 31.0119 -97.2861 199° South 406 467 22,000  Level Houston Center
05:11PM 30.8892 -97.3333 198° South 422 486 22,000  Level Houston Center
05:12PM 30.7811 -97.3744 198° South 409 471 22,000  Level Houston Center
05:13PM 30.6542 -97.4242 199° South 410 472 22,000  Level Houston Center
05:14PM 30.5417 -97.4311 183° South 420 483 22,000  Level Houston Center
05:15PM 30.4339 -97.4039 168° South 395 455 22,000  Level Houston Center
05:16PM 30.3292 -97.3736 166° South 386 444 22,000 -240 Level Houston Center
05:17PM 30.2247 -97.3453 167° South 382 440 21,600 -1,200 Descending Houston Center
05:18PM 30.1211 -97.3208 168° South 378 435 19,600 -1,920 Descending Houston Center
05:19PM 30.0644 -97.4008 231° Southwest 306 352 17,700 -1,620 Descending Houston Center
05:20PM 30.0339 -97.4861 248° West 290 334 16,300 -1,380 Descending Houston Center
05:21PM 29.9972 -97.5858 247° West 288 331 14,900 -1,380 Descending Houston Center
05:22PM 29.9733 -97.6544 248° West 284 327 13,800 -1,260 Descending Houston Center
05:23PM 29.9514 -97.7103 246° West 273 314 13,000 -660 Descending Houston Center
05:23PM 29.9356 -97.7544 248° West 276 318 13,000 -120 Level Houston Center
05:24PM 29.9200 -97.7986 248° West 312 359 12,900  Descending Houston Center
05:25PM 29.8986 -97.8569 247° West 323 372 13,000 60 Climbing Houston Center
05:25PM 29.8886 -97.8869 249° West 336 387 13,000 -300 Level Houston Center
05:26PM 29.8600 -97.9506 243° Southwest 324 373 12,700 -1,140 Descending Houston Center
05:26PM 29.8456 -97.9864 245° Southwest 322 371 11,900 -1,860 Descending Houston Center
05:27PM 29.8144 -98.0556 243° Southwest 293 337 10,400 -1,560 Descending Houston Center
05:28PM 29.7783 -98.1417 244° Southwest 270 311 8,900 -1,440 Descending Houston Center
05:29PM 29.7369 -98.1956 229° Southwest 291 335 7,800 -1,260 Descending Houston Center
05:29PM 29.7203 -98.2164 227° Southwest 295 339 7,500 -1,080 Descending Houston Center
05:30PM 29.6844 -98.2686 232° Southwest 274 315 6,700 -1,140 Descending Houston Center
05:30PM 29.6742 -98.2844 233° Southwest 267 307 6,400 -720 Descending Houston Center
05:31PM 29.6306 -98.3083 205° Southwest 239 275 6,000 -360 Descending Houston Center
05:31PM 29.6044 -98.3028 170° South 233 268 6,000  Level Houston Center
05:32PM 29.5667 -98.2719 145° Southeast 239 275 6,000  Level Houston Center
05:32PM 29.5500 -98.2589 146° Southeast 242 278 6,000  Level Houston Center
05:33PM 29.5058 -98.2564 177° South 247 284 6,000 -120 Level Houston Center
05:33PM 29.4878 -98.2689 211° Southwest 242 278 5,900 -1,380 Descending Houston Center
05:34PM 29.4483 -98.2983 213° Southwest 244 281 4,600 -1,980 Descending Houston Center
05:35PM 29.4489 -98.3656 271° West 224 258 2,500 -1,500 Descending Houston Center
05:35PM 29.4628 -98.3822 314° West 201 231 2,500 -300 Level Houston Center
05:36PM 29.4808 -98.4053 312° West 170 196 2,200 -540 Descending Houston Center
05:37PM 29.5056 -98.4372 312° West 131 151 1,600 -600 Descending Houston Center
05:37PM 29.5106 -98.4461 303° West 116 133 1,400 -720 Descending Houston Center
05:38PM 29.5278 -98.4653 316° Northwest 121 139 900 -720 Descending Houston Center